Terminal Aerodrome Forecast
Issued by NWS Wilmington, NC

Home | Current Version | Previous Version | Text Only | Print | Product List | Glossary On
Versions: 1 2 3 4 5 6 7 8 9 10 11 12 13 14
732
FTUS42 KILM 281929 AAA
TAFLBT
TAF AMD
KLBT 281929Z 2819/2918 21010G15KT P6SM SCT040
     FM290300 23006KT P6SM SCT050 BKN110
     FM290800 24005KT 5SM BR FEW002
     FM291200 33009KT P6SM FEW040=

USA.gov is the U.S. government's official web portal to all federal, state and local government web resources and services.